Time;durP1;ratioP1;P1;durP2;ratioP2;P2;SDS_P1;SDS_P2;PMS_P1;PMS_P2;Temp;Humidity;BMP_temperature;BMP_pressure;BME280_temperature;BME280_humidity;BME280_pressure;Samples;Min_cycle;Max_cycle;Signal;HPM_P1;HPM_P2
2022/03/19 00:00:51;;;;;;;16.77;4.72;;;2.90;99.90;;;;;;5103668;27;20031;-65
2022/03/19 00:03:18;;;;;;;18.38;5.00;;;2.90;99.90;;;;;;5108109;27;20043;-65
2022/03/19 00:05:44;;;;;;;15.70;4.50;;;2.90;99.90;;;;;;5100948;27;20412;-65
2022/03/19 00:08:11;;;;;;;16.85;4.80;;;2.80;99.90;;;;;;5079018;27;20067;-66
2022/03/19 00:10:37;;;;;;;14.45;4.70;;;2.70;99.90;;;;;;5100574;27;20035;-66
2022/03/19 00:13:03;;;;;;;15.50;4.38;;;2.80;99.90;;;;;;5089230;28;20142;-65
2022/03/19 00:15:28;;;;;;;16.70;4.05;;;2.70;99.90;;;;;;5079606;28;20135;-65
2022/03/19 00:17:56;;;;;;;20.35;3.88;;;2.70;99.90;;;;;;5101913;27;20053;-65
2022/03/19 00:20:22;;;;;;;21.02;5.00;;;2.60;99.90;;;;;;5106204;27;20043;-66
2022/03/19 00:22:47;;;;;;;14.43;3.55;;;2.60;99.90;;;;;;5116166;27;20045;-65
2022/03/19 00:25:13;;;;;;;15.10;3.85;;;2.60;99.90;;;;;;5109273;27;20042;-65
2022/03/19 00:27:42;;;;;;;8.77;3.55;;;2.60;99.90;;;;;;5109912;27;20054;-65
2022/03/19 00:30:09;;;;;;;18.52;4.32;;;2.50;99.90;;;;;;5111251;27;20379;-65
2022/03/19 00:32:35;;;;;;;13.25;4.18;;;2.50;99.90;;;;;;5129408;27;20437;-65
2022/03/19 00:35:02;;;;;;;8.50;3.50;;;2.50;99.90;;;;;;5099791;27;20028;-65
2022/03/19 00:37:27;;;;;;;12.73;3.15;;;2.50;99.90;;;;;;5103994;28;20130;-65
2022/03/19 00:39:53;;;;;;;10.60;3.45;;;2.50;99.90;;;;;;5100437;27;20127;-65
2022/03/19 00:42:18;;;;;;;13.10;3.85;;;2.50;99.90;;;;;;5101103;27;20042;-65
2022/03/19 00:44:44;;;;;;;14.35;3.63;;;2.50;99.90;;;;;;5108684;27;20104;-65
2022/03/19 00:47:10;;;;;;;12.48;2.97;;;2.50;99.90;;;;;;5105000;27;20050;-66
2022/03/19 00:49:36;;;;;;;14.07;3.10;;;2.40;99.90;;;;;;5108109;27;20106;-65
2022/03/19 00:52:02;;;;;;;10.20;2.70;;;2.40;99.90;;;;;;5081429;27;20138;-65
2022/03/19 00:54:27;;;;;;;8.93;3.00;;;2.40;99.90;;;;;;5109181;27;20073;-66
2022/03/19 00:56:53;;;;;;;14.18;3.28;;;2.40;99.90;;;;;;5103264;28;20034;-65
2022/03/19 00:59:18;;;;;;;12.65;3.33;;;2.40;99.90;;;;;;5109505;27;20032;-65
2022/03/19 01:01:44;;;;;;;9.98;2.97;;;2.30;99.90;;;;;;5111099;27;20126;-65
2022/03/19 01:04:09;;;;;;;10.25;2.95;;;2.30;99.90;;;;;;5105888;28;20058;-65
2022/03/19 01:06:35;;;;;;;8.18;2.85;;;2.30;99.90;;;;;;5125987;27;20035;-66
2022/03/19 01:09:01;;;;;;;11.50;3.58;;;2.30;99.90;;;;;;5102109;27;20619;-65
2022/03/19 01:11:27;;;;;;;9.57;2.78;;;2.30;99.90;;;;;;5109028;27;22221;-66
2022/03/19 01:13:54;;;;;;;10.25;3.38;;;2.20;99.90;;;;;;5098513;27;20043;-65
2022/03/19 01:16:19;;;;;;;11.65;2.63;;;2.20;99.90;;;;;;5109845;27;20103;-65
2022/03/19 01:18:49;;;;;;;15.70;2.97;;;2.20;99.90;;;;;;5107330;27;20027;-65
2022/03/19 01:21:15;;;;;;;9.77;2.60;;;2.20;99.90;;;;;;5085309;28;20048;-65
2022/03/19 01:23:41;;;;;;;9.93;3.08;;;2.20;99.90;;;;;;5101984;27;20300;-66
2022/03/19 01:26:07;;;;;;;12.98;3.28;;;2.20;99.90;;;;;;5096784;28;20452;-65
2022/03/19 01:28:32;;;;;;;15.75;2.97;;;2.20;99.90;;;;;;5107842;27;20035;-65
2022/03/19 01:30:58;;;;;;;11.10;2.83;;;2.20;99.90;;;;;;5110306;27;20387;-65
2022/03/19 01:33:24;;;;;;;11.70;2.55;;;2.20;99.90;;;;;;5110510;27;20039;-65
2022/03/19 01:35:49;;;;;;;8.45;2.35;;;2.20;99.90;;;;;;5110200;27;20035;-65
2022/03/19 01:38:15;;;;;;;9.70;2.88;;;2.10;99.90;;;;;;5107750;27;20520;-65
2022/03/19 01:40:40;;;;;;;10.85;3.05;;;2.20;99.90;;;;;;5117545;27;20122;-65
2022/03/19 01:43:06;;;;;;;14.25;4.13;;;2.10;99.90;;;;;;5104837;27;20168;-65
2022/03/19 01:45:32;;;;;;;11.35;3.15;;;2.10;99.90;;;;;;5102620;27;20039;-65
2022/03/19 01:47:57;;;;;;;15.60;3.25;;;2.10;99.90;;;;;;5107903;27;20062;-66
2022/03/19 01:50:26;;;;;;;9.40;3.03;;;2.10;99.90;;;;;;5101643;27;20039;-65
2022/03/19 01:52:53;;;;;;;8.57;3.30;;;2.10;99.90;;;;;;5095655;27;20040;-65
2022/03/19 01:55:21;;;;;;;15.90;3.30;;;2.10;99.90;;;;;;5104287;27;20035;-65
2022/03/19 01:57:48;;;;;;;12.85;3.40;;;2.10;99.90;;;;;;5108948;27;20039;-66
2022/03/19 02:00:18;;;;;;;10.63;3.13;;;2.10;99.90;;;;;;5089267;27;20047;-65
2022/03/19 02:02:44;;;;;;;15.10;2.80;;;2.10;99.90;;;;;;5084333;27;20039;-65
2022/03/19 02:05:16;;;;;;;11.65;3.60;;;2.10;99.90;;;;;;5091632;28;20072;-66
2022/03/19 02:07:43;;;;;;;9.98;3.20;;;2.00;99.90;;;;;;5097669;28;20475;-66
2022/03/19 02:10:10;;;;;;;13.63;3.22;;;2.00;99.90;;;;;;5108478;27;20050;-65
2022/03/19 02:12:36;;;;;;;7.75;2.60;;;1.90;99.90;;;;;;5089856;28;20054;-66
2022/03/19 02:15:04;;;;;;;13.88;3.17;;;1.90;99.90;;;;;;5100352;28;20048;-65
2022/03/19 02:17:29;;;;;;;12.75;3.47;;;1.90;99.90;;;;;;5105141;28;20031;-66
2022/03/19 02:19:57;;;;;;;13.85;3.90;;;1.90;99.90;;;;;;5104664;28;20340;-66
2022/03/19 02:22:25;;;;;;;9.77;3.50;;;1.90;99.90;;;;;;5097245;28;20540;-66
2022/03/19 02:27:37;;;;;;;13.57;3.58;;;1.90;99.90;;;;;;5094990;28;20058;-66
2022/03/19 02:30:06;;;;;;;11.55;3.22;;;1.90;99.90;;;;;;5096138;28;20136;-66
2022/03/19 02:32:31;;;;;;;12.15;2.92;;;1.80;99.90;;;;;;5110239;28;20168;-66
2022/03/19 02:34:58;;;;;;;11.57;3.67;;;1.70;99.90;;;;;;5109296;28;20035;-66
2022/03/19 02:37:23;;;;;;;8.82;3.17;;;1.80;99.90;;;;;;5085601;28;20110;-66
2022/03/19 02:39:49;;;;;;;10.88;3.10;;;1.70;99.90;;;;;;5103077;28;20479;-66
2022/03/19 02:42:19;;;;;;;12.82;3.75;;;1.60;99.90;;;;;;5120766;28;20491;-65
2022/03/19 02:44:46;;;;;;;11.52;3.45;;;1.60;99.90;;;;;;5099657;28;20129;-66
2022/03/19 02:47:12;;;;;;;15.38;4.10;;;1.50;99.90;;;;;;5102077;28;20042;-66
2022/03/19 02:49:38;;;;;;;13.98;3.78;;;1.50;99.90;;;;;;5105728;28;20040;-66
2022/03/19 02:52:04;;;;;;;13.48;4.10;;;1.50;99.90;;;;;;5107455;28;20039;-66
2022/03/19 02:54:31;;;;;;;13.07;3.80;;;1.50;99.90;;;;;;5101769;28;20038;-66
2022/03/19 02:56:57;;;;;;;15.98;3.58;;;1.50;99.90;;;;;;5102993;28;20128;-65
2022/03/19 02:59:29;;;;;;;7.68;3.83;;;1.50;99.90;;;;;;5106959;28;20058;-65
2022/03/19 03:01:57;;;;;;;11.80;3.63;;;1.40;99.90;;;;;;5106714;28;20037;-65
2022/03/19 03:04:23;;;;;;;16.25;3.33;;;1.40;99.90;;;;;;5104484;28;20039;-66
2022/03/19 03:06:51;;;;;;;14.07;4.15;;;1.40;99.90;;;;;;5091085;28;20390;-67
2022/03/19 03:09:22;;;;;;;10.02;3.47;;;1.40;99.90;;;;;;5096512;28;21188;-66
2022/03/19 03:11:48;;;;;;;9.63;3.72;;;1.40;99.90;;;;;;5082484;28;20035;-65
2022/03/19 03:14:15;;;;;;;9.35;3.58;;;1.40;99.90;;;;;;5098915;28;20055;-65
2022/03/19 03:16:42;;;;;;;10.30;3.30;;;1.30;99.90;;;;;;5106007;28;20090;-66
2022/03/19 03:19:11;;;;;;;11.98;3.45;;;1.30;99.90;;;;;;5099611;28;20486;-65
2022/03/19 03:21:39;;;;;;;10.17;3.43;;;1.30;99.90;;;;;;5114085;27;20405;-65
2022/03/19 03:24:06;;;;;;;9.60;3.20;;;1.40;99.90;;;;;;5094816;27;20303;-66
2022/03/19 03:26:32;;;;;;;12.35;3.60;;;1.30;99.90;;;;;;5107932;27;20081;-65
2022/03/19 03:28:58;;;;;;;9.65;3.47;;;1.30;99.90;;;;;;5089876;27;20054;-65
2022/03/19 03:31:25;;;;;;;11.57;3.67;;;1.30;99.90;;;;;;5108484;27;20073;-66
2022/03/19 03:33:50;;;;;;;6.82;3.30;;;1.30;99.90;;;;;;5112347;27;20046;-65
2022/03/19 03:36:16;;;;;;;10.55;4.05;;;1.30;99.90;;;;;;5110533;27;20031;-66
2022/03/19 03:38:42;;;;;;;9.10;3.67;;;1.30;99.90;;;;;;5103053;27;20042;-66
2022/03/19 03:41:07;;;;;;;12.27;4.18;;;1.20;99.90;;;;;;5098776;27;20036;-66
2022/03/19 03:43:33;;;;;;;13.45;4.38;;;1.10;99.90;;;;;;5106723;27;20575;-65
2022/03/19 03:45:59;;;;;;;10.93;4.32;;;1.10;99.90;;;;;;5108061;27;20035;-65
2022/03/19 03:48:24;;;;;;;9.40;4.32;;;1.20;99.90;;;;;;5112128;27;20050;-66
2022/03/19 03:50:53;;;;;;;9.82;4.03;;;1.10;99.90;;;;;;5106055;27;20042;-66
2022/03/19 03:53:19;;;;;;;10.65;4.20;;;1.10;99.90;;;;;;5127648;27;20363;-65
2022/03/19 03:55:46;;;;;;;12.52;4.15;;;1.20;99.90;;;;;;5084671;27;20036;-66
2022/03/19 03:58:12;;;;;;;16.33;4.10;;;1.20;99.90;;;;;;5089060;27;20039;-65
2022/03/19 04:00:38;;;;;;;13.57;4.20;;;1.10;99.90;;;;;;5078680;28;20356;-65
2022/03/19 04:03:06;;;;;;;13.95;4.05;;;1.10;99.90;;;;;;5094199;27;20085;-65
2022/03/19 04:05:35;;;;;;;14.10;4.80;;;1.20;99.90;;;;;;5098612;27;20079;-65
2022/03/19 04:08:03;;;;;;;14.85;4.57;;;1.10;99.90;;;;;;5108986;27;20034;-65
2022/03/19 04:10:29;;;;;;;16.73;4.20;;;1.20;99.90;;;;;;5101989;27;20047;-65
2022/03/19 04:12:55;;;;;;;12.73;4.25;;;1.10;99.90;;;;;;5093313;28;20043;-65
2022/03/19 04:15:20;;;;;;;11.05;4.95;;;1.10;99.90;;;;;;5107692;27;20043;-65
2022/03/19 04:17:46;;;;;;;14.00;4.45;;;1.00;99.90;;;;;;5104862;27;20031;-65
2022/03/19 04:20:12;;;;;;;13.70;4.50;;;1.00;99.90;;;;;;5106357;27;20082;-64
2022/03/19 04:22:40;;;;;;;9.13;4.28;;;1.00;99.90;;;;;;5105903;27;20062;-65
2022/03/19 04:25:18;;;;;;;16.60;4.55;;;1.10;99.90;;;;;;5095105;28;20031;-65
2022/03/19 04:27:46;;;;;;;11.75;4.22;;;1.10;99.90;;;;;;5106398;27;20035;-65
2022/03/19 04:30:14;;;;;;;12.93;4.60;;;1.10;99.90;;;;;;5129312;27;20035;-65
2022/03/19 04:32:40;;;;;;;12.95;5.03;;;1.10;99.90;;;;;;5106980;27;20229;-65
2022/03/19 04:36:29;;;;;;;18.15;5.38;;;1.10;99.90;;;;;;5100673;28;20062;-66
2022/03/19 04:37:51;;;;;;;13.88;4.22;;;1.10;99.90;;;;;;5101876;27;20039;-65
2022/03/19 04:40:17;;;;;;;14.65;4.60;;;1.10;99.90;;;;;;5094118;27;20036;-65
2022/03/19 04:42:43;;;;;;;13.77;4.78;;;1.00;99.90;;;;;;5108638;27;20087;-65
2022/03/19 04:45:08;;;;;;;12.07;5.10;;;1.00;99.90;;;;;;5111304;27;20031;-65
2022/03/19 04:47:34;;;;;;;13.93;4.90;;;1.00;99.90;;;;;;5105682;28;20060;-65
2022/03/19 04:50:04;;;;;;;15.73;4.85;;;0.90;99.90;;;;;;5096487;28;20059;-65
2022/03/19 04:52:30;;;;;;;;;;;0.90;99.90;;;;;;5116700;27;20072;-65
2022/03/19 04:55:00;;;;;;;11.38;4.70;;;0.90;99.90;;;;;;5111400;27;19927;-66
2022/03/19 04:57:26;;;;;;;13.13;4.72;;;0.90;99.90;;;;;;5102498;27;20066;-65
2022/03/19 04:59:52;;;;;;;9.10;4.43;;;0.90;99.90;;;;;;5107641;27;20050;-65
2022/03/19 05:02:17;;;;;;;21.40;4.78;;;0.90;99.90;;;;;;5107953;27;20429;-65
2022/03/19 05:04:43;;;;;;;12.02;5.05;;;0.90;99.90;;;;;;5117774;27;20054;-66
2022/03/19 05:07:09;;;;;;;17.92;5.63;;;0.90;99.90;;;;;;5096016;27;20089;-65
2022/03/19 05:12:29;;;;;;;10.85;4.72;;;0.90;99.90;;;;;;5109418;27;20492;-65
2022/03/19 05:14:55;;;;;;;15.10;4.90;;;0.90;99.90;;;;;;5102418;27;20055;-65
2022/03/19 05:17:21;;;;;;;16.88;5.70;;;0.80;99.90;;;;;;5096750;27;20043;-65
2022/03/19 05:19:46;;;;;;;15.55;5.10;;;0.90;99.90;;;;;;5099412;27;20035;-65
2022/03/19 05:22:12;;;;;;;14.32;5.20;;;0.90;99.90;;;;;;5089646;28;20118;-65
2022/03/19 05:24:37;;;;;;;15.65;4.85;;;0.80;99.90;;;;;;5082254;27;20096;-65
2022/03/19 05:27:03;;;;;;;11.65;5.30;;;0.80;99.90;;;;;;5102567;27;20447;-65
2022/03/19 05:29:31;;;;;;;12.65;4.70;;;0.80;99.90;;;;;;5105368;28;20043;-65
2022/03/19 05:31:56;;;;;;;12.00;5.28;;;0.70;99.90;;;;;;5107241;27;20038;-66
2022/03/19 05:34:31;;;;;;;10.25;4.07;;;0.70;99.90;;;;;;5104469;27;20040;-66
2022/03/19 05:37:01;;;;;;;13.05;5.05;;;0.70;99.90;;;;;;5093984;27;20035;-66
2022/03/19 05:39:27;;;;;;;12.85;5.13;;;0.70;99.90;;;;;;5105569;27;20146;-65
2022/03/19 05:41:54;;;;;;;15.52;5.47;;;0.70;99.90;;;;;;5105042;27;20050;-65
2022/03/19 05:44:20;;;;;;;13.65;4.97;;;0.80;99.90;;;;;;5121818;27;20039;-65
2022/03/19 05:46:45;;;;;;;12.43;5.85;;;0.80;99.90;;;;;;5112807;27;20160;-66
2022/03/19 05:49:11;;;;;;;14.52;5.45;;;0.70;99.90;;;;;;5107097;27;20518;-65
2022/03/19 05:51:37;;;;;;;12.10;5.43;;;0.80;99.90;;;;;;5111309;27;20047;-65
2022/03/19 05:54:02;;;;;;;17.02;5.60;;;0.80;99.90;;;;;;5119148;27;20854;-65
2022/03/19 05:56:29;;;;;;;18.27;5.18;;;0.80;99.90;;;;;;5106910;27;20031;-65
2022/03/19 05:58:55;;;;;;;15.52;6.20;;;0.80;99.90;;;;;;5108228;27;20046;-65
2022/03/19 06:01:26;;;;;;;16.00;5.07;;;0.80;99.90;;;;;;5099216;28;20548;-69
2022/03/19 06:03:52;;;;;;;15.93;6.45;;;0.80;99.90;;;;;;5106577;27;20073;-66
2022/03/19 06:06:17;;;;;;;11.05;5.22;;;0.90;99.90;;;;;;5089658;28;20514;-65
2022/03/19 06:08:43;;;;;;;19.38;6.20;;;0.90;99.90;;;;;;5102148;27;20130;-65
2022/03/19 06:11:08;;;;;;;16.92;6.85;;;1.00;99.90;;;;;;5108488;27;20475;-64
2022/03/19 06:13:34;;;;;;;11.73;5.18;;;1.00;99.90;;;;;;5119724;27;20051;-65
2022/03/19 06:16:00;;;;;;;18.90;5.40;;;1.00;99.90;;;;;;5086421;28;20039;-65
2022/03/19 06:18:26;;;;;;;17.27;6.55;;;1.20;99.90;;;;;;5108506;28;20060;-65
2022/03/19 06:20:51;;;;;;;15.55;6.72;;;1.20;99.90;;;;;;5110462;28;20119;-65
2022/03/19 06:23:17;;;;;;;12.85;5.78;;;1.20;99.90;;;;;;5099723;28;20471;-66
2022/03/19 06:25:43;;;;;;;16.52;6.65;;;1.40;99.90;;;;;;5094519;28;20035;-65
2022/03/19 06:28:08;;;;;;;15.52;6.10;;;1.50;99.90;;;;;;5109509;28;20065;-65
2022/03/19 06:30:37;;;;;;;19.95;6.40;;;1.80;99.90;;;;;;5112105;28;20031;-66
2022/03/19 06:33:04;;;;;;;20.70;6.50;;;2.00;99.90;;;;;;5091815;28;20115;-66
2022/03/19 06:38:15;;;;;;;18.38;6.78;;;2.50;99.90;;;;;;5106037;28;20039;-67
2022/03/19 06:40:41;;;;;;;19.05;6.22;;;2.70;99.90;;;;;;5104522;28;20043;-66
2022/03/19 06:43:06;;;;;;;19.20;6.85;;;2.90;99.90;;;;;;5103353;28;20085;-66
2022/03/19 06:45:32;;;;;;;20.17;6.20;;;3.30;99.90;;;;;;5095693;28;20149;-66
2022/03/19 06:47:57;;;;;;;15.77;5.63;;;3.70;99.90;;;;;;5093028;28;20217;-66
2022/03/19 06:50:23;;;;;;;21.70;7.30;;;4.00;99.90;;;;;;5105613;28;20038;-67
2022/03/19 06:52:48;;;;;;;20.77;6.20;;;4.20;99.90;;;;;;5106596;28;20477;-66
2022/03/19 06:55:14;;;;;;;16.48;6.05;;;4.50;99.90;;;;;;5107335;27;20043;-66
2022/03/19 06:57:39;;;;;;;22.23;6.95;;;4.80;99.90;;;;;;5109385;27;20114;-67
2022/03/19 07:00:06;;;;;;;16.85;5.80;;;5.00;99.90;;;;;;5111113;27;20134;-68
2022/03/19 07:02:31;;;;;;;17.05;6.38;;;5.30;99.90;;;;;;5109611;27;20027;-67
2022/03/19 07:04:57;;;;;;;17.40;6.03;;;5.40;99.90;;;;;;5110896;27;20320;-67
2022/03/19 07:07:22;;;;;;;16.02;6.03;;;5.60;99.90;;;;;;5112196;27;20035;-67
2022/03/19 07:09:49;;;;;;;19.58;6.15;;;5.90;99.90;;;;;;5091843;27;20035;-67
2022/03/19 07:12:15;;;;;;;15.00;5.82;;;6.10;99.90;;;;;;5111911;27;20851;-67
2022/03/19 07:14:40;;;;;;;18.35;6.35;;;6.30;99.90;;;;;;5109478;27;20059;-67
2022/03/19 07:17:07;;;;;;;15.40;5.78;;;6.50;99.90;;;;;;5109536;27;20039;-67
2022/03/19 07:19:33;;;;;;;23.45;6.43;;;6.70;99.90;;;;;;5096073;27;20447;-68
2022/03/19 07:21:58;;;;;;;15.60;5.90;;;6.90;99.90;;;;;;5108171;27;20043;-67
2022/03/19 07:24:24;;;;;;;15.15;5.63;;;7.10;99.90;;;;;;5131105;27;20433;-66
2022/03/19 07:26:50;;;;;;;18.55;6.85;;;7.30;98.10;;;;;;5106147;27;20043;-68
2022/03/19 07:29:19;;;;;;;18.35;6.88;;;7.50;98.10;;;;;;5111432;27;20041;-67
2022/03/19 07:31:45;;;;;;;16.83;6.53;;;7.80;97.20;;;;;;5109781;27;20039;-67
2022/03/19 07:34:10;;;;;;;15.55;6.45;;;8.00;96.20;;;;;;5110521;27;20103;-68
2022/03/19 07:36:36;;;;;;;17.17;6.68;;;8.20;95.50;;;;;;5114903;27;20031;-67
2022/03/19 07:39:02;;;;;;;14.52;6.85;;;8.50;93.30;;;;;;5107936;27;20583;-68
2022/03/19 07:41:45;;;;;;;15.98;6.32;;;8.50;91.40;;;;;;5104435;27;20043;-67
2022/03/19 07:44:11;;;;;;;16.63;6.53;;;8.60;92.50;;;;;;5103093;28;20039;-67
2022/03/19 07:46:36;;;;;;;17.08;6.18;;;8.90;91.60;;;;;;5095786;27;20087;-66
2022/03/19 07:49:03;;;;;;;17.08;6.57;;;8.90;90.70;;;;;;5115854;27;20210;-67
2022/03/19 07:51:29;;;;;;;16.23;5.93;;;9.20;89.20;;;;;;5109207;27;20463;-68
2022/03/19 07:53:54;;;;;;;13.23;6.82;;;9.40;90.00;;;;;;5105076;28;20040;-67
2022/03/19 07:56:20;;;;;;;16.33;5.68;;;9.60;87.00;;;;;;5109034;27;20148;-68
2022/03/19 07:58:50;;;;;;;21.80;6.90;;;9.90;88.60;;;;;;5110050;27;20074;-67
2022/03/19 08:01:19;;;;;;;14.05;5.53;;;10.10;87.90;;;;;;5111533;27;20035;-68
2022/03/19 08:03:45;;;;;;;16.27;6.07;;;10.20;86.20;;;;;;5101737;27;20087;-68
2022/03/19 08:06:11;;;;;;;13.27;6.07;;;10.20;84.80;;;;;;5105301;28;20051;-67
2022/03/19 08:08:40;;;;;;;18.25;6.50;;;10.10;84.10;;;;;;5104957;27;20043;-67
2022/03/19 08:11:07;;;;;;;14.98;6.28;;;10.00;83.40;;;;;;5107353;27;20097;-68
2022/03/19 08:13:32;;;;;;;10.70;4.72;;;9.70;83.30;;;;;;5113915;27;20051;-67
2022/03/19 08:15:58;;;;;;;15.02;5.00;;;9.40;81.50;;;;;;5094871;27;20043;-67
2022/03/19 08:18:24;;;;;;;11.18;5.13;;;9.40;81.10;;;;;;5100831;27;20441;-67
2022/03/19 08:20:50;;;;;;;12.02;4.40;;;9.30;80.10;;;;;;5109059;27;20027;-67
2022/03/19 08:23:15;;;;;;;14.90;5.00;;;9.20;79.70;;;;;;5105329;27;20051;-67
2022/03/19 08:25:42;;;;;;;16.63;5.10;;;9.20;78.40;;;;;;5108765;28;20081;-67
2022/03/19 08:28:08;;;;;;;17.15;5.03;;;9.30;78.80;;;;;;5105514;27;20046;-66
2022/03/19 08:30:34;;;;;;;10.93;4.22;;;9.30;78.10;;;;;;5110155;27;20609;-66
2022/03/19 08:33:00;;;;;;;11.27;3.92;;;9.30;77.20;;;;;;5112117;27;20471;-67
2022/03/19 08:35:26;;;;;;;11.55;4.03;;;9.30;77.50;;;;;;5108473;27;20130;-67
2022/03/19 08:40:15;;;;;;;12.63;4.15;;;9.30;75.70;;;;;;5107856;27;20027;-67
2022/03/19 08:40:40;;;;;;;11.45;4.15;;;9.30;75.20;;;;;;5110949;27;20107;-67
2022/03/19 08:43:05;;;;;;;13.23;3.80;;;9.40;75.20;;;;;;5091618;27;20035;-68
2022/03/19 08:45:31;;;;;;;13.38;3.10;;;9.50;75.30;;;;;;5108034;27;20035;-68
2022/03/19 08:47:56;;;;;;;13.18;3.53;;;9.40;71.80;;;;;;5110037;27;20035;-68
2022/03/19 08:50:24;;;;;;;12.35;4.10;;;9.40;72.90;;;;;;5109162;27;20111;-67
2022/03/19 08:52:49;;;;;;;16.10;3.45;;;9.40;72.10;;;;;;5106059;27;20404;-68
2022/03/19 08:55:15;;;;;;;14.23;4.00;;;9.50;72.80;;;;;;5109413;27;20035;-67
2022/03/19 08:57:40;;;;;;;10.55;2.90;;;9.50;72.00;;;;;;5111353;27;20039;-67
2022/03/19 09:00:07;;;;;;;12.75;3.58;;;9.50;70.70;;;;;;5107539;27;20027;-68
2022/03/19 09:02:34;;;;;;;11.52;3.45;;;9.50;71.20;;;;;;5094825;27;20043;-68
2022/03/19 09:04:59;;;;;;;10.68;2.90;;;9.60;70.10;;;;;;5108871;28;20035;-69
2022/03/19 09:07:25;;;;;;;13.70;3.40;;;9.50;70.50;;;;;;5104034;27;20088;-68
2022/03/19 09:09:54;;;;;;;8.27;2.95;;;9.60;70.50;;;;;;5116132;27;20803;-67
2022/03/19 09:12:25;;;;;;;9.77;3.30;;;9.70;70.20;;;;;;5108697;27;20031;-68
2022/03/19 09:14:51;;;;;;;13.55;3.60;;;9.90;69.80;;;;;;5101848;27;20094;-66
2022/03/19 09:17:17;;;;;;;13.40;3.22;;;10.00;68.40;;;;;;5110231;27;20061;-68
2022/03/19 09:19:42;;;;;;;14.60;3.33;;;10.10;67.90;;;;;;5123401;27;20070;-67
2022/03/19 09:22:08;;;;;;;10.10;3.10;;;10.20;67.60;;;;;;5086674;27;20085;-66
2022/03/19 09:24:34;;;;;;;8.75;3.15;;;10.30;67.50;;;;;;5110543;27;20046;-68
2022/03/19 09:27:00;;;;;;;12.57;3.05;;;10.50;68.60;;;;;;5110960;27;20403;-68
2022/03/19 09:29:26;;;;;;;7.13;2.90;;;10.40;66.90;;;;;;5108431;27;20482;-67
2022/03/19 09:31:52;;;;;;;7.05;2.60;;;10.40;66.90;;;;;;5111079;27;20112;-67
2022/03/19 09:34:18;;;;;;;11.45;3.05;;;10.40;64.30;;;;;;5102773;27;20046;-67
2022/03/19 09:36:46;;;;;;;8.05;2.80;;;10.40;66.00;;;;;;5109509;27;20035;-67
2022/03/19 09:39:16;;;;;;;9.98;2.47;;;10.40;67.20;;;;;;5090760;27;20034;-66
2022/03/19 09:41:42;;;;;;;13.23;3.00;;;10.40;62.70;;;;;;5112336;27;20058;-68
2022/03/19 09:44:11;;;;;;;10.95;2.50;;;10.10;63.60;;;;;;5128412;27;20035;-68
2022/03/19 09:46:37;;;;;;;10.00;2.80;;;10.20;62.50;;;;;;5102410;27;20149;-69
2022/03/19 09:49:03;;;;;;;8.88;2.28;;;10.40;63.70;;;;;;5106618;27;20043;-67
2022/03/19 09:51:31;;;;;;;8.80;2.35;;;10.40;60.60;;;;;;5104286;28;20088;-67
2022/03/19 09:53:57;;;;;;;9.63;2.60;;;10.30;62.10;;;;;;5105428;27;20196;-67
2022/03/19 09:56:22;;;;;;;5.30;2.30;;;10.40;62.70;;;;;;5103069;27;20027;-68
2022/03/19 09:58:48;;;;;;;10.73;3.08;;;10.50;62.80;;;;;;5124038;27;20030;-67
2022/03/19 10:01:20;;;;;;;10.15;3.03;;;10.60;63.60;;;;;;5106581;27;20539;-67
2022/03/19 10:03:48;;;;;;;8.85;2.75;;;10.70;63.50;;;;;;5124451;27;20470;-68
2022/03/19 10:09:08;;;;;;;6.97;1.95;;;10.50;60.50;;;;;;5079775;28;20143;-69
2022/03/19 10:11:37;;;;;;;10.18;2.60;;;10.60;60.20;;;;;;5106113;28;20434;-68
2022/03/19 10:14:09;;;;;;;4.65;2.28;;;10.60;60.10;;;;;;5106329;28;20051;-68
2022/03/19 10:16:36;;;;;;;13.57;2.72;;;10.80;61.60;;;;;;5106613;28;20045;-68
2022/03/19 10:19:06;;;;;;;9.40;1.95;;;10.80;60.20;;;;;;5108497;28;20039;-67
2022/03/19 10:21:40;;;;;;;11.20;2.33;;;10.80;58.70;;;;;;5106791;28;20031;-68
2022/03/19 10:24:22;;;;;;;9.15;2.20;;;10.60;57.10;;;;;;5102856;28;20118;-69
2022/03/19 10:26:48;;;;;;;4.80;2.17;;;10.80;58.40;;;;;;5087455;28;20124;-70
2022/03/19 10:29:14;;;;;;;8.82;2.40;;;10.90;58.50;;;;;;5098274;27;20038;-66
2022/03/19 10:31:46;;;;;;;5.50;1.95;;;10.80;57.00;;;;;;5105454;27;20080;-68
2022/03/19 10:34:13;;;;;;;10.75;2.47;;;10.80;57.20;;;;;;5095123;27;20038;-66
2022/03/19 10:36:41;;;;;;;7.80;2.20;;;11.00;58.60;;;;;;5098486;27;20039;-69
2022/03/19 10:39:19;;;;;;;7.80;2.20;;;11.00;57.50;;;;;;5082095;28;20376;-69
2022/03/19 10:41:45;;;;;;;12.80;2.72;;;11.00;57.30;;;;;;5131947;27;20074;-68
2022/03/19 10:44:11;;;;;;;7.13;2.40;;;11.20;58.20;;;;;;5126262;27;20089;-68
2022/03/19 10:46:37;;;;;;;10.52;2.88;;;11.30;58.30;;;;;;5134409;27;20046;-71
2022/03/19 10:49:11;;;;;;;6.43;2.03;;;11.40;57.30;;;;;;5109620;27;20116;-69
2022/03/19 10:51:36;;;;;;;10.48;1.90;;;11.30;54.40;;;;;;5094730;27;20078;-68
2022/03/19 10:54:03;;;;;;;8.93;2.20;;;11.20;55.20;;;;;;5105666;27;20067;-69
2022/03/19 10:56:29;;;;;;;11.00;2.45;;;11.20;55.90;;;;;;5111786;27;20037;-69
2022/03/19 10:58:55;;;;;;;6.00;1.80;;;11.20;55.60;;;;;;5112960;27;20370;-68
2022/03/19 11:01:21;;;;;;;5.63;2.00;;;11.20;55.90;;;;;;5111140;27;20042;-68
2022/03/19 11:03:49;;;;;;;4.50;1.75;;;11.30;56.10;;;;;;5111501;27;20099;-68
2022/03/19 11:06:19;;;;;;;5.38;1.80;;;11.50;54.50;;;;;;5131387;27;20114;-68
2022/03/19 11:08:47;;;;;;;6.55;1.85;;;11.30;53.20;;;;;;5104612;27;20038;-69
2022/03/19 11:11:31;;;;;;;6.55;1.77;;;11.30;52.70;;;;;;5096015;27;20518;-69
2022/03/19 11:13:58;;;;;;;3.95;1.60;;;11.30;51.10;;;;;;5104851;27;20127;-69
2022/03/19 11:16:26;;;;;;;3.15;1.52;;;11.30;50.40;;;;;;5114598;27;20042;-68
2022/03/19 11:18:52;;;;;;;7.35;1.77;;;11.40;50.40;;;;;;5106517;28;20089;-68
2022/03/19 11:21:19;;;;;;;4.72;1.60;;;11.40;52.40;;;;;;5088047;27;20391;-69
2022/03/19 11:23:55;;;;;;;3.90;1.40;;;11.50;52.60;;;;;;5105906;27;20047;-69
2022/03/19 11:26:28;;;;;;;4.78;1.48;;;11.60;50.80;;;;;;5113521;27;20049;-69
2022/03/19 11:28:54;;;;;;;3.33;1.65;;;11.60;50.30;;;;;;5112246;27;20038;-69
2022/03/19 11:31:29;;;;;;;7.13;1.73;;;11.80;51.20;;;;;;5108172;27;20035;-69
2022/03/19 11:34:01;;;;;;;4.72;1.63;;;11.90;51.70;;;;;;5092009;27;20071;-70
2022/03/19 11:36:27;;;;;;;6.85;1.77;;;11.80;49.90;;;;;;5095670;27;20119;-70
2022/03/19 11:38:54;;;;;;;5.85;1.83;;;11.80;51.20;;;;;;5106180;27;20043;-70
2022/03/19 11:41:23;;;;;;;6.43;2.00;;;11.80;51.20;;;;;;5110558;27;20427;-69
2022/03/19 11:43:49;;;;;;;4.43;1.75;;;11.90;51.90;;;;;;5111426;27;20573;-71
2022/03/19 11:46:16;;;;;;;5.57;1.80;;;11.90;52.60;;;;;;5110856;27;20146;-71
2022/03/19 11:48:46;;;;;;;4.63;1.55;;;11.70;50.60;;;;;;5086288;27;20476;-69
2022/03/19 11:51:33;;;;;;;3.35;1.58;;;11.80;51.80;;;;;;5114411;27;20062;-70
2022/03/19 11:54:03;;;;;;;3.65;1.42;;;11.60;50.60;;;;;;5103970;27;20051;-68
2022/03/19 11:56:48;;;;;;;4.97;1.60;;;11.80;50.00;;;;;;5086489;27;20039;-70
2022/03/19 11:59:17;;;;;;;6.15;1.85;;;11.80;49.60;;;;;;5082923;27;20091;-69
2022/03/19 12:01:49;;;;;;;3.75;1.45;;;11.90;51.00;;;;;;5110284;27;20379;-68
2022/03/19 12:04:16;;;;;;;6.70;1.40;;;12.10;49.00;;;;;;5105774;27;20137;-70
2022/03/19 12:06:58;;;;;;;3.88;1.20;;;12.00;48.90;;;;;;5112783;27;20039;-69
2022/03/19 12:09:41;;;;;;;2.83;0.95;;;12.00;48.90;;;;;;5112293;27;20039;-69
2022/03/19 12:12:15;;;;;;;4.13;1.20;;;12.10;45.60;;;;;;5107472;27;20035;-68
2022/03/19 12:14:44;;;;;;;5.55;1.40;;;12.00;45.30;;;;;;5105864;27;20047;-68
2022/03/19 12:17:31;;;;;;;8.75;1.60;;;12.00;48.00;;;;;;5109715;27;20118;-70
2022/03/19 12:20:07;;;;;;;4.30;1.33;;;12.10;46.80;;;;;;5105246;27;20073;-71
2022/03/19 12:22:41;;;;;;;5.63;1.40;;;12.20;48.40;;;;;;5089842;27;20030;-69
2022/03/19 12:25:13;;;;;;;3.45;0.82;;;12.20;45.50;;;;;;5113508;27;20031;-71
2022/03/19 12:27:40;;;;;;;2.72;1.20;;;12.40;45.30;;;;;;5094320;27;20086;-74
2022/03/19 12:30:08;;;;;;;4.60;1.30;;;12.10;44.10;;;;;;5111528;27;20123;-72
2022/03/19 12:32:49;;;;;;;2.78;1.05;;;12.10;44.90;;;;;;5107770;27;20639;-71
2022/03/19 12:35:16;;;;;;;2.55;1.10;;;12.20;46.20;;;;;;5090128;27;20403;-74
2022/03/19 12:37:53;;;;;;;2.67;1.08;;;12.20;44.50;;;;;;5092425;27;20042;-70
2022/03/19 12:40:24;;;;;;;5.07;1.25;;;12.20;43.60;;;;;;5109181;27;20043;-71
2022/03/19 12:42:57;;;;;;;4.18;1.00;;;12.30;46.10;;;;;;5108336;27;20522;-70
2022/03/19 12:45:40;;;;;;;3.30;1.20;;;12.30;44.80;;;;;;5108150;27;20535;-71
2022/03/19 12:48:17;;;;;;;3.28;1.00;;;12.20;43.80;;;;;;5109589;27;20465;-71
2022/03/19 12:50:53;;;;;;;3.83;1.15;;;12.40;44.00;;;;;;5109457;27;20039;-69
2022/03/19 12:53:33;;;;;;;5.22;1.00;;;12.30;43.50;;;;;;5101900;27;20084;-70
2022/03/19 12:56:19;;;;;;;3.08;1.35;;;13.30;44.40;;;;;;5092461;27;20043;-71
2022/03/19 12:58:47;;;;;;;6.90;2.00;;;14.00;43.20;;;;;;5108959;27;20072;-70
2022/03/19 13:01:41;;;;;;;5.13;1.30;;;15.60;42.40;;;;;;5130971;27;20176;-71